createdAt,value
2023-01-23T00:00:13.690Z,98862.16
2023-01-23T00:05:14.907Z,98882.56
2023-01-23T00:10:16.124Z,98895.25
2023-01-23T00:15:17.374Z,98908.03
2023-01-23T00:20:18.934Z,98902.72
2023-01-23T00:25:20.324Z,98899.44
2023-01-23T00:30:21.680Z,98900.34
2023-01-23T00:35:22.983Z,98900.47
2023-01-23T00:40:24.211Z,98889.06
2023-01-23T00:45:25.439Z,98897.19
2023-01-23T00:50:26.641Z,98893.78
2023-01-23T00:55:27.923Z,98894.31
2023-01-23T01:00:29.172Z,98886.69
2023-01-23T01:05:30.456Z,98892.47
2023-01-23T01:10:32.880Z,98898.66
2023-01-23T01:15:34.175Z,98901.00
2023-01-23T01:20:35.391Z,98901.03
2023-01-23T01:25:36.597Z,98902.09
2023-01-23T01:30:38.093Z,98902.81
2023-01-23T01:35:39.418Z,98894.94
2023-01-23T01:40:40.910Z,98896.03
2023-01-23T01:45:42.173Z,98887.56
2023-01-23T01:50:43.484Z,98880.69
2023-01-23T01:55:44.701Z,98878.25
2023-01-23T02:00:46.044Z,98875.63
2023-01-23T02:05:47.365Z,98872.19
2023-01-23T02:10:48.623Z,98871.88
2023-01-23T02:15:50.002Z,98886.19
2023-01-23T02:20:51.269Z,98877.53
2023-01-23T02:25:53.459Z,98875.81
2023-01-23T02:30:54.816Z,98878.47
2023-01-23T02:35:56.187Z,98884.47
2023-01-23T02:40:57.483Z,98889.03
2023-01-23T02:45:58.746Z,98883.19
2023-01-23T02:51:00.060Z,98876.19
2023-01-23T02:56:01.342Z,98876.94
2023-01-23T03:01:02.630Z,98865.69
2023-01-23T03:06:04.160Z,98883.63
2023-01-23T03:11:05.358Z,98885.47
2023-01-23T03:16:06.917Z,98873.16
2023-01-23T03:21:08.383Z,98882.09
2023-01-23T03:26:09.636Z,98882.75
2023-01-23T03:31:11.269Z,98875.91
2023-01-23T03:36:13.128Z,98880.41
2023-01-23T03:41:26.695Z,98877.00
2023-01-23T03:46:27.968Z,98885.97
2023-01-23T03:51:29.228Z,98889.41
2023-01-23T03:56:30.516Z,98887.75
2023-01-23T04:01:31.805Z,98886.22
2023-01-23T04:06:33.074Z,98898.56
2023-01-23T04:11:34.295Z,98896.97
2023-01-23T04:16:35.610Z,98897.28
2023-01-23T04:21:36.946Z,98907.56
2023-01-23T04:26:38.249Z,98896.19
2023-01-23T04:31:39.555Z,98892.97
2023-01-23T04:36:40.831Z,98898.03
2023-01-23T04:41:42.030Z,98911.00
2023-01-23T04:46:43.234Z,98912.88
2023-01-23T04:51:45.695Z,98918.22
2023-01-23T04:56:46.909Z,98915.47
2023-01-23T05:01:48.133Z,98914.72
2023-01-23T05:06:49.367Z,98911.47
2023-01-23T05:11:50.591Z,98908.78
2023-01-23T05:16:51.823Z,98913.16
2023-01-23T05:21:53.106Z,98914.81
2023-01-23T05:26:54.355Z,98915.41
2023-01-23T05:31:55.672Z,98922.25
2023-01-23T05:36:56.889Z,98924.00
2023-01-23T05:41:58.099Z,98921.19
2023-01-23T05:46:59.340Z,98929.78
2023-01-23T05:52:00.557Z,98943.63
2023-01-23T05:57:01.805Z,98948.69
2023-01-23T06:02:03.148Z,98962.31
2023-01-23T06:07:04.420Z,98964.72
2023-01-23T06:12:05.673Z,98979.38
2023-01-23T06:17:06.979Z,98981.78
2023-01-23T06:22:08.240Z,98974.72
2023-01-23T06:27:09.451Z,98984.66
2023-01-23T06:32:10.714Z,98999.47
2023-01-23T06:37:12.078Z,99015.47
2023-01-23T06:42:13.368Z,99012.13
2023-01-23T06:47:15.689Z,99031.81
2023-01-23T06:52:17.057Z,99037.81
2023-01-23T06:57:18.400Z,99052.47
2023-01-23T07:02:19.674Z,99043.09
2023-01-23T07:07:21.002Z,99045.88
2023-01-23T07:12:22.451Z,99044.25
2023-01-23T07:17:23.793Z,99052.50
2023-01-23T07:22:25.124Z,99048.47
2023-01-23T07:27:26.406Z,99050.19
2023-01-23T07:32:27.629Z,99043.44
2023-01-23T07:37:29.059Z,99035.78
2023-01-23T07:42:30.433Z,99042.75
2023-01-23T07:47:31.802Z,99059.84
2023-01-23T07:52:33.299Z,99065.13
2023-01-23T07:57:34.557Z,99070.25
2023-01-23T08:02:35.883Z,99062.44
2023-01-23T08:07:37.137Z,99070.25
2023-01-23T08:12:38.395Z,99073.75
2023-01-23T08:17:39.646Z,99090.28
2023-01-23T08:22:41.211Z,99080.09
2023-01-23T08:27:42.767Z,99079.28
2023-01-23T08:32:44.113Z,99075.16
2023-01-23T08:37:45.562Z,99071.78
2023-01-23T08:42:46.854Z,99066.66
2023-01-23T08:47:48.520Z,99067.44
2023-01-23T08:52:50.117Z,99066.69
2023-01-23T08:57:51.490Z,99072.03
2023-01-23T09:02:52.909Z,99068.59
2023-01-23T09:07:54.261Z,99073.81
2023-01-23T09:12:55.696Z,99060.88
2023-01-23T09:17:56.972Z,99072.16
2023-01-23T09:22:58.341Z,99070.41
2023-01-23T09:27:59.608Z,99074.81
2023-01-23T09:33:00.871Z,99073.97
2023-01-23T09:38:02.774Z,99076.47
2023-01-23T09:43:04.525Z,99064.66
2023-01-23T09:48:05.976Z,99064.56
2023-01-23T09:53:07.300Z,99059.53
2023-01-23T09:58:08.733Z,99049.88
2023-01-23T10:03:10.032Z,99056.00
2023-01-23T10:08:11.528Z,99057.88
2023-01-23T10:13:14.921Z,99047.66
2023-01-23T10:18:17.710Z,99039.03
2023-01-23T10:23:19.039Z,99041.69
2023-01-23T10:28:20.526Z,99034.00
2023-01-23T10:33:21.842Z,99035.06
2023-01-23T10:38:23.100Z,99028.31
2023-01-23T10:43:24.497Z,99026.75
2023-01-23T10:48:25.804Z,99017.34
2023-01-23T10:53:27.212Z,99014.97
2023-01-23T10:58:29.013Z,99001.22
2023-01-23T11:03:30.510Z,98986.66
2023-01-23T11:08:31.824Z,98983.25
2023-01-23T11:13:33.101Z,98979.75
2023-01-23T11:18:34.573Z,98969.47
2023-01-23T11:23:35.949Z,98965.22
2023-01-23T11:28:37.456Z,98955.72
2023-01-23T11:33:39.092Z,98953.16
2023-01-23T11:38:51.420Z,98942.94
2023-01-23T11:43:53.698Z,98937.03
2023-01-23T11:48:55.017Z,98937.88
2023-01-23T11:53:56.316Z,98938.00
2023-01-23T11:58:57.598Z,98929.41
2023-01-23T12:03:58.949Z,98919.88
2023-01-23T12:09:00.382Z,98913.03
2023-01-23T12:14:01.664Z,98925.09
2023-01-23T12:19:02.940Z,98920.81
2023-01-23T12:24:04.209Z,98910.44
2023-01-23T12:29:05.571Z,98910.50
2023-01-23T12:34:06.866Z,98919.09
2023-01-23T12:39:08.204Z,98894.25
2023-01-23T12:44:09.465Z,98897.69
2023-01-23T12:49:10.823Z,98887.41
2023-01-23T12:54:12.121Z,98880.56
2023-01-23T12:59:15.243Z,98881.47
2023-01-23T13:04:16.604Z,98882.31
2023-01-23T13:09:18.954Z,98872.88
2023-01-23T13:14:20.639Z,98872.03
2023-01-23T13:19:40.474Z,98878.00
2023-01-23T13:25:00.515Z,98877.13
2023-01-23T13:30:02.527Z,98866.84
2023-01-23T13:35:03.797Z,98875.41
2023-01-23T13:40:06.771Z,98874.56
2023-01-23T13:45:09.322Z,98877.09
2023-01-23T14:22:22.071Z,98881.44
2023-01-23T14:27:28.895Z,98876.22
2023-01-23T14:32:31.550Z,98877.16
2023-01-23T14:37:32.759Z,98876.31
2023-01-23T14:42:34.809Z,98878.00
2023-01-23T14:47:37.795Z,98880.59
2023-01-23T14:52:39.170Z,98877.13
2023-01-23T14:57:40.514Z,98885.69
2023-01-23T15:02:42.667Z,98881.38
2023-01-23T15:07:44.661Z,98891.59
2023-01-23T15:12:45.918Z,98892.34
2023-01-23T15:17:47.158Z,98884.59
2023-01-23T15:22:48.399Z,98906.09
2023-01-23T15:27:49.606Z,98895.78
2023-01-23T15:32:51.087Z,98896.53
2023-01-23T15:37:55.985Z,98896.53
2023-01-23T15:42:57.296Z,98883.75
2023-01-23T15:47:58.613Z,98877.59
2023-01-23T15:52:59.896Z,98890.34
2023-01-23T15:58:02.920Z,98904.28
2023-01-23T16:03:04.319Z,98899.97
2023-01-23T16:08:05.730Z,98925.69
2023-01-23T16:13:07.821Z,98924.81
2023-01-23T16:18:09.142Z,98922.09
2023-01-23T16:23:15.160Z,98925.53
2023-01-23T16:28:16.754Z,98919.44
2023-01-23T16:33:17.979Z,98939.16
2023-01-23T16:38:19.697Z,98936.63
2023-01-23T16:43:20.966Z,98952.97
2023-01-23T16:48:27.247Z,98949.47
2023-01-23T16:53:29.408Z,98954.47
2023-01-23T16:58:30.939Z,98939.13
2023-01-23T17:03:32.288Z,98959.81
2023-01-23T17:08:33.523Z,98958.84
2023-01-23T17:13:36.150Z,98959.59
2023-01-23T17:18:37.670Z,98958.03
2023-01-23T17:23:38.907Z,98955.25
2023-01-23T17:28:40.303Z,98965.66
2023-01-23T17:33:41.610Z,98970.63
2023-01-23T17:38:42.893Z,98971.53
2023-01-23T17:43:44.789Z,98976.63
2023-01-23T17:48:46.060Z,98990.34
2023-01-23T17:53:47.425Z,98988.75
2023-01-23T17:58:48.761Z,99004.56
2023-01-23T18:03:50.409Z,99011.59
2023-01-23T18:08:51.630Z,99015.94
2023-01-23T18:13:52.869Z,99022.78
2023-01-23T18:18:54.163Z,99022.00
2023-01-23T18:23:55.789Z,99028.72
2023-01-23T18:28:57.104Z,99019.41
2023-01-23T18:33:58.363Z,99019.34
2023-01-23T18:38:59.595Z,99027.94
2023-01-23T18:44:00.845Z,99027.88
2023-01-23T18:49:02.107Z,99046.72
2023-01-23T18:54:03.374Z,99028.69
2023-01-23T18:59:11.596Z,99027.03
2023-01-23T19:04:13.793Z,99030.38
2023-01-23T19:09:15.094Z,99025.28
2023-01-23T19:14:16.358Z,99034.69
2023-01-23T19:19:19.085Z,99036.44
2023-01-23T19:24:21.340Z,99051.88
2023-01-23T19:29:23.347Z,99059.56
2023-01-23T19:34:24.688Z,99054.25
2023-01-23T19:39:25.933Z,99063.47
2023-01-23T19:44:28.923Z,99076.41
2023-01-23T19:49:30.290Z,99079.88
2023-01-23T19:54:31.556Z,99079.88
2023-01-23T19:59:32.788Z,99092.63
2023-01-23T20:04:34.266Z,99085.78
2023-01-23T20:09:35.509Z,99085.22
2023-01-23T20:14:36.734Z,99074.03
2023-01-23T20:19:38.376Z,99076.69
2023-01-23T20:24:39.574Z,99080.84
2023-01-23T20:29:40.783Z,99078.19
2023-01-23T20:34:42.051Z,99077.44
2023-01-23T20:39:43.297Z,99083.41
2023-01-23T20:44:44.572Z,99079.03
2023-01-23T20:49:45.911Z,99080.06
2023-01-23T20:54:48.236Z,99087.75
2023-01-23T20:59:49.673Z,99083.66
2023-01-23T21:04:50.938Z,99086.19
2023-01-23T21:09:52.210Z,99082.06
2023-01-23T21:14:53.451Z,99074.31
2023-01-23T21:19:54.717Z,99089.72
2023-01-23T21:24:55.959Z,99087.97
2023-01-23T21:29:57.271Z,99088.94
2023-01-23T21:34:58.701Z,99104.44
2023-01-23T21:39:59.937Z,99104.41
2023-01-23T21:45:01.199Z,99106.06
2023-01-23T21:50:02.412Z,99114.50
2023-01-23T21:55:03.700Z,99110.06
2023-01-23T22:00:23.775Z,99103.88
2023-01-23T22:05:25.030Z,99109.38
2023-01-23T22:10:26.321Z,99104.75
2023-01-23T22:15:27.625Z,99107.94
2023-01-23T22:20:28.999Z,99117.59
2023-01-23T22:25:30.275Z,99117.78
2023-01-23T22:30:31.570Z,99118.78
2023-01-23T22:35:32.772Z,99132.66
2023-01-23T22:40:34.139Z,99128.41
2023-01-23T22:45:35.429Z,99116.28
2023-01-23T22:50:36.639Z,99114.72
2023-01-23T22:55:37.845Z,99117.31
2023-01-23T23:00:39.046Z,99122.34
2023-01-23T23:05:40.312Z,99116.19
2023-01-23T23:10:41.545Z,99117.06
2023-01-23T23:15:42.754Z,99129.13
2023-01-23T23:20:43.996Z,99127.44
2023-01-23T23:31:17.880Z,99144.34
2023-01-23T23:36:19.236Z,99153.84
2023-01-23T23:41:20.591Z,99143.72
2023-01-23T23:46:21.796Z,99143.69
2023-01-23T23:51:23.128Z,99142.91
2023-01-23T23:56:24.434Z,99143.00
